sensor_id;sensor_type;location;lat;lon;timestamp;P1;durP1;ratioP1;P2;durP2;ratioP2
13985;SDS011;7067;51.832;8.296;2024-01-10T00:01:08;10.73;;;6.13;;
13985;SDS011;7067;51.832;8.296;2024-01-10T00:03:34;12.90;;;4.63;;
13985;SDS011;7067;51.832;8.296;2024-01-10T00:05:59;10.47;;;5.37;;
13985;SDS011;7067;51.832;8.296;2024-01-10T00:08:24;12.90;;;6.00;;
13985;SDS011;7067;51.832;8.296;2024-01-10T00:10:51;10.87;;;6.47;;
13985;SDS011;7067;51.832;8.296;2024-01-10T00:13:17;11.60;;;5.40;;
13985;SDS011;7067;51.832;8.296;2024-01-10T00:15:42;10.50;;;5.87;;
13985;SDS011;7067;51.832;8.296;2024-01-10T00:18:08;14.03;;;6.13;;
13985;SDS011;7067;51.832;8.296;2024-01-10T00:20:33;7.73;;;4.70;;
13985;SDS011;7067;51.832;8.296;2024-01-10T00:22:58;10.77;;;5.10;;
13985;SDS011;7067;51.832;8.296;2024-01-10T00:25:24;9.27;;;4.67;;
13985;SDS011;7067;51.832;8.296;2024-01-10T00:27:49;8.47;;;5.50;;
13985;SDS011;7067;51.832;8.296;2024-01-10T00:30:14;9.60;;;5.33;;
13985;SDS011;7067;51.832;8.296;2024-01-10T00:32:40;9.37;;;4.80;;
13985;SDS011;7067;51.832;8.296;2024-01-10T00:35:05;10.37;;;4.93;;
13985;SDS011;7067;51.832;8.296;2024-01-10T00:37:30;10.27;;;4.90;;
13985;SDS011;7067;51.832;8.296;2024-01-10T00:39:56;9.60;;;5.57;;
13985;SDS011;7067;51.832;8.296;2024-01-10T00:42:21;8.53;;;4.60;;
13985;SDS011;7067;51.832;8.296;2024-01-10T00:44:47;9.23;;;5.57;;
13985;SDS011;7067;51.832;8.296;2024-01-10T00:47:12;7.17;;;4.83;;
13985;SDS011;7067;51.832;8.296;2024-01-10T00:49:37;9.80;;;5.13;;
13985;SDS011;7067;51.832;8.296;2024-01-10T00:52:03;9.10;;;4.93;;
13985;SDS011;7067;51.832;8.296;2024-01-10T00:54:28;12.33;;;5.40;;
13985;SDS011;7067;51.832;8.296;2024-01-10T00:56:53;9.03;;;5.10;;
13985;SDS011;7067;51.832;8.296;2024-01-10T00:59:19;15.20;;;6.73;;
13985;SDS011;7067;51.832;8.296;2024-01-10T01:01:44;8.90;;;6.00;;
13985;SDS011;7067;51.832;8.296;2024-01-10T01:04:10;10.40;;;5.23;;
13985;SDS011;7067;51.832;8.296;2024-01-10T01:06:35;10.50;;;5.13;;
13985;SDS011;7067;51.832;8.296;2024-01-10T01:09:00;11.13;;;6.03;;
13985;SDS011;7067;51.832;8.296;2024-01-10T01:11:26;9.07;;;5.77;;
13985;SDS011;7067;51.832;8.296;2024-01-10T01:13:51;13.47;;;5.53;;
13985;SDS011;7067;51.832;8.296;2024-01-10T01:16:16;8.60;;;5.77;;
13985;SDS011;7067;51.832;8.296;2024-01-10T01:18:42;9.30;;;5.63;;
13985;SDS011;7067;51.832;8.296;2024-01-10T01:21:10;12.87;;;5.70;;
13985;SDS011;7067;51.832;8.296;2024-01-10T01:23:36;12.87;;;6.27;;
13985;SDS011;7067;51.832;8.296;2024-01-10T01:26:01;10.47;;;5.90;;
13985;SDS011;7067;51.832;8.296;2024-01-10T01:28:26;9.90;;;5.17;;
13985;SDS011;7067;51.832;8.296;2024-01-10T01:30:52;15.63;;;6.83;;
13985;SDS011;7067;51.832;8.296;2024-01-10T01:33:17;13.97;;;6.70;;
13985;SDS011;7067;51.832;8.296;2024-01-10T01:35:43;9.87;;;6.23;;
13985;SDS011;7067;51.832;8.296;2024-01-10T01:38:08;14.67;;;6.60;;
13985;SDS011;7067;51.832;8.296;2024-01-10T01:40:33;16.67;;;7.03;;
13985;SDS011;7067;51.832;8.296;2024-01-10T01:42:59;12.73;;;6.60;;
13985;SDS011;7067;51.832;8.296;2024-01-10T01:45:24;12.43;;;6.40;;
13985;SDS011;7067;51.832;8.296;2024-01-10T01:47:49;11.00;;;6.27;;
13985;SDS011;7067;51.832;8.296;2024-01-10T01:50:15;16.30;;;7.27;;
13985;SDS011;7067;51.832;8.296;2024-01-10T01:52:41;12.73;;;6.77;;
13985;SDS011;7067;51.832;8.296;2024-01-10T01:55:08;10.13;;;7.17;;
13985;SDS011;7067;51.832;8.296;2024-01-10T01:57:35;14.70;;;8.00;;
13985;SDS011;7067;51.832;8.296;2024-01-10T02:00:01;12.60;;;6.53;;
13985;SDS011;7067;51.832;8.296;2024-01-10T02:02:27;15.20;;;8.33;;
13985;SDS011;7067;51.832;8.296;2024-01-10T02:04:52;13.63;;;6.60;;
13985;SDS011;7067;51.832;8.296;2024-01-10T02:07:18;15.53;;;7.47;;
13985;SDS011;7067;51.832;8.296;2024-01-10T02:09:43;13.43;;;7.90;;
13985;SDS011;7067;51.832;8.296;2024-01-10T02:12:09;13.93;;;7.33;;
13985;SDS011;7067;51.832;8.296;2024-01-10T02:14:34;12.83;;;8.10;;
13985;SDS011;7067;51.832;8.296;2024-01-10T02:16:59;11.73;;;7.00;;
13985;SDS011;7067;51.832;8.296;2024-01-10T02:19:25;11.27;;;7.23;;
13985;SDS011;7067;51.832;8.296;2024-01-10T02:21:51;10.93;;;7.13;;
13985;SDS011;7067;51.832;8.296;2024-01-10T02:24:17;14.13;;;6.77;;
13985;SDS011;7067;51.832;8.296;2024-01-10T02:26:42;16.77;;;7.90;;
13985;SDS011;7067;51.832;8.296;2024-01-10T02:29:08;15.87;;;7.90;;
13985;SDS011;7067;51.832;8.296;2024-01-10T02:31:33;13.80;;;7.83;;
13985;SDS011;7067;51.832;8.296;2024-01-10T02:33:58;12.63;;;7.43;;
13985;SDS011;7067;51.832;8.296;2024-01-10T02:36:24;14.60;;;7.87;;
13985;SDS011;7067;51.832;8.296;2024-01-10T02:38:49;14.63;;;7.53;;
13985;SDS011;7067;51.832;8.296;2024-01-10T02:41:15;16.17;;;7.80;;
13985;SDS011;7067;51.832;8.296;2024-01-10T02:43:40;9.43;;;6.50;;
13985;SDS011;7067;51.832;8.296;2024-01-10T02:46:06;15.67;;;7.10;;
13985;SDS011;7067;51.832;8.296;2024-01-10T02:48:31;14.20;;;7.60;;
13985;SDS011;7067;51.832;8.296;2024-01-10T02:50:56;17.23;;;8.03;;
13985;SDS011;7067;51.832;8.296;2024-01-10T02:53:22;18.70;;;9.07;;
13985;SDS011;7067;51.832;8.296;2024-01-10T02:55:47;16.87;;;8.73;;
13985;SDS011;7067;51.832;8.296;2024-01-10T02:58:14;15.20;;;8.07;;
13985;SDS011;7067;51.832;8.296;2024-01-10T03:00:39;16.40;;;7.90;;
13985;SDS011;7067;51.832;8.296;2024-01-10T03:03:04;15.93;;;7.43;;
13985;SDS011;7067;51.832;8.296;2024-01-10T03:05:30;14.07;;;8.23;;
13985;SDS011;7067;51.832;8.296;2024-01-10T03:07:55;15.40;;;8.67;;
13985;SDS011;7067;51.832;8.296;2024-01-10T03:10:20;15.13;;;8.90;;
13985;SDS011;7067;51.832;8.296;2024-01-10T03:12:46;12.70;;;7.90;;
13985;SDS011;7067;51.832;8.296;2024-01-10T03:15:11;16.37;;;8.97;;
13985;SDS011;7067;51.832;8.296;2024-01-10T03:17:37;15.30;;;7.67;;
13985;SDS011;7067;51.832;8.296;2024-01-10T03:20:02;20.40;;;9.13;;
13985;SDS011;7067;51.832;8.296;2024-01-10T03:22:29;15.57;;;8.50;;
13985;SDS011;7067;51.832;8.296;2024-01-10T03:24:55;13.03;;;7.67;;
13985;SDS011;7067;51.832;8.296;2024-01-10T03:27:20;15.00;;;7.93;;
13985;SDS011;7067;51.832;8.296;2024-01-10T03:29:46;17.20;;;7.70;;
13985;SDS011;7067;51.832;8.296;2024-01-10T03:32:11;17.83;;;8.63;;
13985;SDS011;7067;51.832;8.296;2024-01-10T03:34:36;13.90;;;8.43;;
13985;SDS011;7067;51.832;8.296;2024-01-10T03:37:02;13.23;;;7.93;;
13985;SDS011;7067;51.832;8.296;2024-01-10T03:39:27;11.17;;;7.67;;
13985;SDS011;7067;51.832;8.296;2024-01-10T03:41:52;12.47;;;8.53;;
13985;SDS011;7067;51.832;8.296;2024-01-10T03:44:18;13.07;;;6.93;;
13985;SDS011;7067;51.832;8.296;2024-01-10T03:46:43;17.63;;;8.93;;
13985;SDS011;7067;51.832;8.296;2024-01-10T03:49:08;19.23;;;8.70;;
13985;SDS011;7067;51.832;8.296;2024-01-10T03:51:34;17.57;;;8.30;;
13985;SDS011;7067;51.832;8.296;2024-01-10T03:53:59;16.87;;;8.37;;
13985;SDS011;7067;51.832;8.296;2024-01-10T03:56:25;16.53;;;8.33;;
13985;SDS011;7067;51.832;8.296;2024-01-10T03:58:51;17.37;;;8.17;;
13985;SDS011;7067;51.832;8.296;2024-01-10T04:01:16;14.87;;;8.70;;
13985;SDS011;7067;51.832;8.296;2024-01-10T04:03:42;21.37;;;9.40;;
13985;SDS011;7067;51.832;8.296;2024-01-10T04:06:09;13.80;;;8.10;;
13985;SDS011;7067;51.832;8.296;2024-01-10T04:08:34;15.43;;;7.73;;
13985;SDS011;7067;51.832;8.296;2024-01-10T04:11:00;14.83;;;8.73;;
13985;SDS011;7067;51.832;8.296;2024-01-10T04:13:28;17.47;;;8.63;;
13985;SDS011;7067;51.832;8.296;2024-01-10T04:15:53;14.40;;;8.93;;
13985;SDS011;7067;51.832;8.296;2024-01-10T04:18:19;18.90;;;9.30;;
13985;SDS011;7067;51.832;8.296;2024-01-10T04:20:44;23.07;;;9.50;;
13985;SDS011;7067;51.832;8.296;2024-01-10T04:23:09;17.30;;;8.40;;
13985;SDS011;7067;51.832;8.296;2024-01-10T04:25:35;19.63;;;7.90;;
13985;SDS011;7067;51.832;8.296;2024-01-10T04:28:00;18.03;;;9.87;;
13985;SDS011;7067;51.832;8.296;2024-01-10T04:30:26;18.23;;;8.63;;
13985;SDS011;7067;51.832;8.296;2024-01-10T04:32:52;18.13;;;9.67;;
13985;SDS011;7067;51.832;8.296;2024-01-10T04:35:17;15.73;;;9.17;;
13985;SDS011;7067;51.832;8.296;2024-01-10T04:37:42;16.50;;;8.83;;
13985;SDS011;7067;51.832;8.296;2024-01-10T04:40:08;17.27;;;9.27;;
13985;SDS011;7067;51.832;8.296;2024-01-10T04:42:35;14.83;;;8.80;;
13985;SDS011;7067;51.832;8.296;2024-01-10T04:45:00;16.07;;;8.50;;
13985;SDS011;7067;51.832;8.296;2024-01-10T04:47:25;18.13;;;8.50;;
13985;SDS011;7067;51.832;8.296;2024-01-10T04:49:51;20.93;;;8.87;;
13985;SDS011;7067;51.832;8.296;2024-01-10T04:52:16;15.93;;;8.73;;
13985;SDS011;7067;51.832;8.296;2024-01-10T04:54:41;15.33;;;8.47;;
13985;SDS011;7067;51.832;8.296;2024-01-10T04:57:07;18.00;;;10.00;;
13985;SDS011;7067;51.832;8.296;2024-01-10T04:59:34;15.83;;;8.73;;
13985;SDS011;7067;51.832;8.296;2024-01-10T05:02:00;20.43;;;9.07;;
13985;SDS011;7067;51.832;8.296;2024-01-10T05:04:26;21.33;;;9.43;;
13985;SDS011;7067;51.832;8.296;2024-01-10T05:06:51;17.77;;;8.37;;
13985;SDS011;7067;51.832;8.296;2024-01-10T05:09:16;19.90;;;10.07;;
13985;SDS011;7067;51.832;8.296;2024-01-10T05:11:42;21.13;;;9.47;;
13985;SDS011;7067;51.832;8.296;2024-01-10T05:14:07;20.23;;;9.80;;
13985;SDS011;7067;51.832;8.296;2024-01-10T05:16:33;18.00;;;9.43;;
13985;SDS011;7067;51.832;8.296;2024-01-10T05:19:00;19.93;;;9.80;;
13985;SDS011;7067;51.832;8.296;2024-01-10T05:21:28;16.83;;;9.15;;
13985;SDS011;7067;51.832;8.296;2024-01-10T05:23:55;14.60;;;8.83;;
13985;SDS011;7067;51.832;8.296;2024-01-10T05:26:20;18.93;;;9.33;;
13985;SDS011;7067;51.832;8.296;2024-01-10T05:28:45;16.63;;;8.90;;
13985;SDS011;7067;51.832;8.296;2024-01-10T05:31:11;15.30;;;8.87;;
13985;SDS011;7067;51.832;8.296;2024-01-10T05:33:36;18.03;;;9.50;;
13985;SDS011;7067;51.832;8.296;2024-01-10T05:36:02;17.17;;;8.73;;
13985;SDS011;7067;51.832;8.296;2024-01-10T05:38:28;15.70;;;8.87;;
13985;SDS011;7067;51.832;8.296;2024-01-10T05:40:53;17.03;;;9.77;;
13985;SDS011;7067;51.832;8.296;2024-01-10T05:43:18;19.40;;;9.37;;
13985;SDS011;7067;51.832;8.296;2024-01-10T05:45:44;14.83;;;8.80;;
13985;SDS011;7067;51.832;8.296;2024-01-10T05:48:09;18.03;;;9.67;;
13985;SDS011;7067;51.832;8.296;2024-01-10T05:50:34;19.80;;;8.40;;
13985;SDS011;7067;51.832;8.296;2024-01-10T05:53:00;18.23;;;8.73;;
13985;SDS011;7067;51.832;8.296;2024-01-10T05:55:25;25.07;;;11.73;;
13985;SDS011;7067;51.832;8.296;2024-01-10T05:57:51;17.93;;;9.47;;
13985;SDS011;7067;51.832;8.296;2024-01-10T06:00:16;21.90;;;11.63;;
13985;SDS011;7067;51.832;8.296;2024-01-10T06:02:42;24.13;;;11.40;;
13985;SDS011;7067;51.832;8.296;2024-01-10T06:05:08;20.90;;;11.10;;
13985;SDS011;7067;51.832;8.296;2024-01-10T06:07:37;21.90;;;10.60;;
13985;SDS011;7067;51.832;8.296;2024-01-10T06:10:03;17.38;;;8.02;;
13985;SDS011;7067;51.832;8.296;2024-01-10T06:12:28;18.70;;;10.47;;
13985;SDS011;7067;51.832;8.296;2024-01-10T06:14:54;18.77;;;9.23;;
13985;SDS011;7067;51.832;8.296;2024-01-10T06:17:19;18.17;;;8.80;;
13985;SDS011;7067;51.832;8.296;2024-01-10T06:19:45;22.80;;;9.93;;
13985;SDS011;7067;51.832;8.296;2024-01-10T06:22:10;19.17;;;8.43;;
13985;SDS011;7067;51.832;8.296;2024-01-10T06:24:38;16.37;;;8.77;;
13985;SDS011;7067;51.832;8.296;2024-01-10T06:27:04;21.37;;;10.50;;
13985;SDS011;7067;51.832;8.296;2024-01-10T06:29:31;21.13;;;9.87;;
13985;SDS011;7067;51.832;8.296;2024-01-10T06:31:56;19.27;;;9.57;;
13985;SDS011;7067;51.832;8.296;2024-01-10T06:34:22;19.63;;;9.07;;
13985;SDS011;7067;51.832;8.296;2024-01-10T06:36:48;18.97;;;9.80;;
13985;SDS011;7067;51.832;8.296;2024-01-10T06:39:13;20.90;;;10.57;;
13985;SDS011;7067;51.832;8.296;2024-01-10T06:41:39;19.47;;;9.03;;
13985;SDS011;7067;51.832;8.296;2024-01-10T06:44:05;20.80;;;9.20;;
13985;SDS011;7067;51.832;8.296;2024-01-10T06:46:31;21.97;;;11.17;;
13985;SDS011;7067;51.832;8.296;2024-01-10T06:48:57;20.37;;;10.23;;
13985;SDS011;7067;51.832;8.296;2024-01-10T06:51:22;23.97;;;10.47;;
13985;SDS011;7067;51.832;8.296;2024-01-10T06:53:48;20.30;;;9.67;;
13985;SDS011;7067;51.832;8.296;2024-01-10T06:56:13;17.50;;;9.60;;
13985;SDS011;7067;51.832;8.296;2024-01-10T06:58:39;21.23;;;10.43;;
13985;SDS011;7067;51.832;8.296;2024-01-10T07:01:04;19.53;;;9.53;;
13985;SDS011;7067;51.832;8.296;2024-01-10T07:03:30;23.10;;;10.60;;
13985;SDS011;7067;51.832;8.296;2024-01-10T07:05:57;18.80;;;10.20;;
13985;SDS011;7067;51.832;8.296;2024-01-10T07:08:23;22.17;;;10.53;;
13985;SDS011;7067;51.832;8.296;2024-01-10T07:10:50;24.60;;;10.37;;
13985;SDS011;7067;51.832;8.296;2024-01-10T07:13:15;25.83;;;10.67;;
13985;SDS011;7067;51.832;8.296;2024-01-10T07:15:40;19.40;;;10.07;;
13985;SDS011;7067;51.832;8.296;2024-01-10T07:18:06;16.27;;;9.53;;
13985;SDS011;7067;51.832;8.296;2024-01-10T07:20:31;21.10;;;10.77;;
13985;SDS011;7067;51.832;8.296;2024-01-10T07:22:57;19.77;;;11.53;;
13985;SDS011;7067;51.832;8.296;2024-01-10T07:25:24;20.20;;;9.90;;
13985;SDS011;7067;51.832;8.296;2024-01-10T07:27:50;24.87;;;10.87;;
13985;SDS011;7067;51.832;8.296;2024-01-10T07:30:16;24.93;;;10.73;;
13985;SDS011;7067;51.832;8.296;2024-01-10T07:32:42;20.70;;;11.03;;
13985;SDS011;7067;51.832;8.296;2024-01-10T07:35:08;23.20;;;9.70;;
13985;SDS011;7067;51.832;8.296;2024-01-10T07:37:37;17.73;;;9.63;;
13985;SDS011;7067;51.832;8.296;2024-01-10T07:40:03;21.97;;;9.93;;
13985;SDS011;7067;51.832;8.296;2024-01-10T07:42:35;20.47;;;10.30;;
13985;SDS011;7067;51.832;8.296;2024-01-10T07:45:01;29.37;;;10.67;;
13985;SDS011;7067;51.832;8.296;2024-01-10T07:47:30;27.00;;;11.77;;
13985;SDS011;7067;51.832;8.296;2024-01-10T07:50:11;23.93;;;10.97;;
13985;SDS011;7067;51.832;8.296;2024-01-10T07:52:39;21.50;;;11.27;;
13985;SDS011;7067;51.832;8.296;2024-01-10T07:55:05;28.10;;;11.20;;
13985;SDS011;7067;51.832;8.296;2024-01-10T07:57:31;25.10;;;11.40;;
13985;SDS011;7067;51.832;8.296;2024-01-10T07:59:57;26.27;;;11.57;;
13985;SDS011;7067;51.832;8.296;2024-01-10T08:02:23;27.03;;;11.90;;
13985;SDS011;7067;51.832;8.296;2024-01-10T08:04:48;23.17;;;10.30;;
13985;SDS011;7067;51.832;8.296;2024-01-10T08:07:14;22.00;;;10.70;;
13985;SDS011;7067;51.832;8.296;2024-01-10T08:09:39;22.43;;;9.83;;
13985;SDS011;7067;51.832;8.296;2024-01-10T08:12:05;25.10;;;9.87;;
13985;SDS011;7067;51.832;8.296;2024-01-10T08:14:30;23.80;;;11.20;;
13985;SDS011;7067;51.832;8.296;2024-01-10T08:16:56;22.97;;;10.60;;
13985;SDS011;7067;51.832;8.296;2024-01-10T08:19:25;23.00;;;11.43;;
13985;SDS011;7067;51.832;8.296;2024-01-10T08:21:51;17.17;;;10.63;;
13985;SDS011;7067;51.832;8.296;2024-01-10T08:24:18;28.33;;;12.17;;
13985;SDS011;7067;51.832;8.296;2024-01-10T08:26:44;22.70;;;11.10;;
13985;SDS011;7067;51.832;8.296;2024-01-10T08:29:09;20.50;;;10.57;;
13985;SDS011;7067;51.832;8.296;2024-01-10T08:31:34;23.73;;;11.67;;
13985;SDS011;7067;51.832;8.296;2024-01-10T08:34:00;22.93;;;11.70;;
13985;SDS011;7067;51.832;8.296;2024-01-10T08:36:25;20.57;;;11.80;;
13985;SDS011;7067;51.832;8.296;2024-01-10T08:38:50;24.93;;;11.27;;
13985;SDS011;7067;51.832;8.296;2024-01-10T08:41:16;25.80;;;11.03;;
13985;SDS011;7067;51.832;8.296;2024-01-10T08:43:42;24.47;;;12.13;;
13985;SDS011;7067;51.832;8.296;2024-01-10T08:46:08;22.07;;;11.93;;
13985;SDS011;7067;51.832;8.296;2024-01-10T09:12:06;24.17;;;10.80;;
13985;SDS011;7067;51.832;8.296;2024-01-10T09:14:32;23.73;;;10.90;;
13985;SDS011;7067;51.832;8.296;2024-01-10T09:16:57;23.80;;;11.43;;
13985;SDS011;7067;51.832;8.296;2024-01-10T09:19:27;24.17;;;12.55;;
13985;SDS011;7067;51.832;8.296;2024-01-10T09:21:52;21.40;;;12.03;;
13985;SDS011;7067;51.832;8.296;2024-01-10T09:24:17;22.97;;;12.13;;
13985;SDS011;7067;51.832;8.296;2024-01-10T09:29:55;29.93;;;13.67;;
13985;SDS011;7067;51.832;8.296;2024-01-10T09:32:20;25.47;;;12.90;;
13985;SDS011;7067;51.832;8.296;2024-01-10T09:34:47;31.97;;;13.20;;
13985;SDS011;7067;51.832;8.296;2024-01-10T09:37:12;32.03;;;12.10;;
13985;SDS011;7067;51.832;8.296;2024-01-10T09:39:38;27.13;;;12.57;;
13985;SDS011;7067;51.832;8.296;2024-01-10T09:42:03;23.10;;;11.87;;
13985;SDS011;7067;51.832;8.296;2024-01-10T09:44:29;23.43;;;12.47;;
13985;SDS011;7067;51.832;8.296;2024-01-10T09:47:11;20.90;;;11.47;;
13985;SDS011;7067;51.832;8.296;2024-01-10T09:56:28;22.33;;;11.50;;
13985;SDS011;7067;51.832;8.296;2024-01-10T09:58:55;24.60;;;11.53;;
13985;SDS011;7067;51.832;8.296;2024-01-10T10:01:21;22.17;;;11.63;;
13985;SDS011;7067;51.832;8.296;2024-01-10T10:03:47;22.27;;;12.53;;
13985;SDS011;7067;51.832;8.296;2024-01-10T10:06:14;25.33;;;12.33;;
13985;SDS011;7067;51.832;8.296;2024-01-10T10:08:39;24.97;;;12.90;;
13985;SDS011;7067;51.832;8.296;2024-01-10T10:11:06;26.20;;;12.33;;
13985;SDS011;7067;51.832;8.296;2024-01-10T10:13:32;28.93;;;12.30;;
13985;SDS011;7067;51.832;8.296;2024-01-10T10:16:01;20.57;;;11.63;;
13985;SDS011;7067;51.832;8.296;2024-01-10T10:18:27;23.87;;;11.57;;
13985;SDS011;7067;51.832;8.296;2024-01-10T10:21:12;24.37;;;11.37;;
13985;SDS011;7067;51.832;8.296;2024-01-10T10:23:38;26.07;;;11.87;;
13985;SDS011;7067;51.832;8.296;2024-01-10T10:26:14;24.70;;;12.60;;
13985;SDS011;7067;51.832;8.296;2024-01-10T10:28:47;21.33;;;10.93;;
13985;SDS011;7067;51.832;8.296;2024-01-10T10:31:13;20.63;;;11.07;;
13985;SDS011;7067;51.832;8.296;2024-01-10T10:33:40;22.90;;;12.17;;
13985;SDS011;7067;51.832;8.296;2024-01-10T10:36:05;22.13;;;11.43;;
13985;SDS011;7067;51.832;8.296;2024-01-10T10:38:31;24.00;;;13.10;;
13985;SDS011;7067;51.832;8.296;2024-01-10T10:40:56;25.37;;;12.43;;
13985;SDS011;7067;51.832;8.296;2024-01-10T10:43:23;25.17;;;13.23;;
13985;SDS011;7067;51.832;8.296;2024-01-10T10:45:49;23.87;;;11.53;;
13985;SDS011;7067;51.832;8.296;2024-01-10T10:48:18;23.23;;;12.03;;
13985;SDS011;7067;51.832;8.296;2024-01-10T10:53:27;32.73;;;17.17;;
13985;SDS011;7067;51.832;8.296;2024-01-10T10:55:53;31.73;;;15.77;;
13985;SDS011;7067;51.832;8.296;2024-01-10T10:58:18;20.73;;;12.40;;
13985;SDS011;7067;51.832;8.296;2024-01-10T11:00:44;23.23;;;11.97;;
13985;SDS011;7067;51.832;8.296;2024-01-10T11:03:11;25.07;;;11.90;;
13985;SDS011;7067;51.832;8.296;2024-01-10T11:05:39;24.57;;;11.43;;
13985;SDS011;7067;51.832;8.296;2024-01-10T11:08:05;23.83;;;12.30;;
13985;SDS011;7067;51.832;8.296;2024-01-10T11:10:33;24.37;;;12.70;;
13985;SDS011;7067;51.832;8.296;2024-01-10T11:23:54;22.97;;;13.07;;
13985;SDS011;7067;51.832;8.296;2024-01-10T11:26:21;27.50;;;12.93;;
13985;SDS011;7067;51.832;8.296;2024-01-10T11:28:47;22.43;;;11.87;;
13985;SDS011;7067;51.832;8.296;2024-01-10T11:31:13;24.57;;;12.23;;
13985;SDS011;7067;51.832;8.296;2024-01-10T11:33:41;21.03;;;10.77;;
13985;SDS011;7067;51.832;8.296;2024-01-10T11:38:41;24.23;;;11.53;;
13985;SDS011;7067;51.832;8.296;2024-01-10T11:41:06;28.20;;;12.40;;
13985;SDS011;7067;51.832;8.296;2024-01-10T11:43:33;20.80;;;10.50;;
13985;SDS011;7067;51.832;8.296;2024-01-10T11:45:59;19.93;;;11.00;;
13985;SDS011;7067;51.832;8.296;2024-01-10T11:48:30;19.50;;;11.33;;
13985;SDS011;7067;51.832;8.296;2024-01-10T11:50:57;22.57;;;10.83;;
13985;SDS011;7067;51.832;8.296;2024-01-10T11:53:41;21.73;;;11.50;;
13985;SDS011;7067;51.832;8.296;2024-01-10T11:56:11;23.90;;;12.60;;
13985;SDS011;7067;51.832;8.296;2024-01-10T11:59:02;25.60;;;11.67;;
13985;SDS011;7067;51.832;8.296;2024-01-10T12:01:31;28.50;;;12.77;;
13985;SDS011;7067;51.832;8.296;2024-01-10T12:03:57;21.57;;;10.93;;
13985;SDS011;7067;51.832;8.296;2024-01-10T12:06:23;25.60;;;11.63;;
13985;SDS011;7067;51.832;8.296;2024-01-10T12:08:50;25.17;;;12.30;;
13985;SDS011;7067;51.832;8.296;2024-01-10T12:11:15;24.53;;;11.63;;
13985;SDS011;7067;51.832;8.296;2024-01-10T12:13:41;20.63;;;11.03;;
13985;SDS011;7067;51.832;8.296;2024-01-10T12:16:06;22.23;;;11.53;;
13985;SDS011;7067;51.832;8.296;2024-01-10T12:18:32;21.40;;;12.03;;
13985;SDS011;7067;51.832;8.296;2024-01-10T12:20:57;23.13;;;12.47;;
13985;SDS011;7067;51.832;8.296;2024-01-10T12:23:23;19.57;;;11.37;;
13985;SDS011;7067;51.832;8.296;2024-01-10T12:25:48;22.00;;;12.53;;
13985;SDS011;7067;51.832;8.296;2024-01-10T12:28:17;19.47;;;12.90;;
13985;SDS011;7067;51.832;8.296;2024-01-10T12:30:42;22.13;;;12.87;;
13985;SDS011;7067;51.832;8.296;2024-01-10T12:33:10;24.17;;;12.63;;
13985;SDS011;7067;51.832;8.296;2024-01-10T12:35:36;26.20;;;14.53;;
13985;SDS011;7067;51.832;8.296;2024-01-10T12:38:03;23.83;;;13.63;;
13985;SDS011;7067;51.832;8.296;2024-01-10T12:40:28;27.77;;;14.07;;
13985;SDS011;7067;51.832;8.296;2024-01-10T12:43:06;25.10;;;14.00;;
13985;SDS011;7067;51.832;8.296;2024-01-10T12:45:32;25.97;;;13.37;;
13985;SDS011;7067;51.832;8.296;2024-01-10T12:47:58;22.17;;;13.33;;
13985;SDS011;7067;51.832;8.296;2024-01-10T12:50:23;21.73;;;12.93;;
13985;SDS011;7067;51.832;8.296;2024-01-10T12:52:50;25.90;;;13.30;;
13985;SDS011;7067;51.832;8.296;2024-01-10T12:55:16;22.73;;;12.80;;
13985;SDS011;7067;51.832;8.296;2024-01-10T12:57:42;21.60;;;12.70;;
13985;SDS011;7067;51.832;8.296;2024-01-10T13:00:09;22.63;;;12.97;;
13985;SDS011;7067;51.832;8.296;2024-01-10T13:02:36;19.17;;;11.40;;
13985;SDS011;7067;51.832;8.296;2024-01-10T13:05:05;20.33;;;12.43;;
13985;SDS011;7067;51.832;8.296;2024-01-10T13:07:34;22.73;;;14.60;;
13985;SDS011;7067;51.832;8.296;2024-01-10T13:10:02;23.20;;;12.87;;
13985;SDS011;7067;51.832;8.296;2024-01-10T13:12:27;20.70;;;12.17;;
13985;SDS011;7067;51.832;8.296;2024-01-10T13:14:53;23.67;;;13.20;;
13985;SDS011;7067;51.832;8.296;2024-01-10T13:17:18;20.57;;;11.97;;
13985;SDS011;7067;51.832;8.296;2024-01-10T13:19:44;20.83;;;11.77;;
13985;SDS011;7067;51.832;8.296;2024-01-10T13:22:13;24.30;;;12.50;;
13985;SDS011;7067;51.832;8.296;2024-01-10T13:24:40;23.47;;;13.13;;
13985;SDS011;7067;51.832;8.296;2024-01-10T13:27:07;24.17;;;14.20;;
13985;SDS011;7067;51.832;8.296;2024-01-10T13:29:34;24.50;;;13.27;;
13985;SDS011;7067;51.832;8.296;2024-01-10T13:32:01;20.80;;;12.60;;
13985;SDS011;7067;51.832;8.296;2024-01-10T13:34:27;20.17;;;12.20;;
13985;SDS011;7067;51.832;8.296;2024-01-10T13:36:53;26.83;;;13.63;;
13985;SDS011;7067;51.832;8.296;2024-01-10T13:39:18;21.47;;;13.20;;
13985;SDS011;7067;51.832;8.296;2024-01-10T13:41:43;21.57;;;13.10;;
13985;SDS011;7067;51.832;8.296;2024-01-10T13:44:09;18.90;;;12.23;;
13985;SDS011;7067;51.832;8.296;2024-01-10T13:46:34;23.73;;;13.27;;
13985;SDS011;7067;51.832;8.296;2024-01-10T13:49:00;17.87;;;11.80;;
13985;SDS011;7067;51.832;8.296;2024-01-10T13:51:26;20.47;;;12.77;;
13985;SDS011;7067;51.832;8.296;2024-01-10T13:53:51;22.87;;;13.00;;
13985;SDS011;7067;51.832;8.296;2024-01-10T13:56:17;19.93;;;12.07;;
13985;SDS011;7067;51.832;8.296;2024-01-10T13:58:42;23.63;;;12.60;;
13985;SDS011;7067;51.832;8.296;2024-01-10T14:01:07;23.23;;;13.40;;
13985;SDS011;7067;51.832;8.296;2024-01-10T14:03:33;21.40;;;12.13;;
13985;SDS011;7067;51.832;8.296;2024-01-10T14:05:58;23.67;;;14.23;;
13985;SDS011;7067;51.832;8.296;2024-01-10T14:08:23;21.60;;;11.90;;
13985;SDS011;7067;51.832;8.296;2024-01-10T14:10:49;24.00;;;12.53;;
13985;SDS011;7067;51.832;8.296;2024-01-10T14:13:15;24.83;;;14.23;;
13985;SDS011;7067;51.832;8.296;2024-01-10T14:15:40;23.70;;;13.70;;
13985;SDS011;7067;51.832;8.296;2024-01-10T14:18:07;27.87;;;14.10;;
13985;SDS011;7067;51.832;8.296;2024-01-10T14:20:32;27.43;;;13.27;;
13985;SDS011;7067;51.832;8.296;2024-01-10T14:22:58;22.37;;;13.17;;
13985;SDS011;7067;51.832;8.296;2024-01-10T14:25:24;23.97;;;13.70;;
13985;SDS011;7067;51.832;8.296;2024-01-10T14:27:51;21.93;;;12.30;;
13985;SDS011;7067;51.832;8.296;2024-01-10T14:30:17;21.50;;;12.50;;
13985;SDS011;7067;51.832;8.296;2024-01-10T14:32:44;22.87;;;13.13;;
13985;SDS011;7067;51.832;8.296;2024-01-10T14:35:12;24.03;;;13.77;;
13985;SDS011;7067;51.832;8.296;2024-01-10T14:37:38;25.23;;;13.63;;
13985;SDS011;7067;51.832;8.296;2024-01-10T14:40:03;23.13;;;14.27;;
13985;SDS011;7067;51.832;8.296;2024-01-10T14:42:29;21.63;;;13.33;;
13985;SDS011;7067;51.832;8.296;2024-01-10T14:44:55;20.27;;;12.33;;
13985;SDS011;7067;51.832;8.296;2024-01-10T14:47:20;18.93;;;12.43;;
13985;SDS011;7067;51.832;8.296;2024-01-10T14:49:46;26.70;;;13.20;;
13985;SDS011;7067;51.832;8.296;2024-01-10T14:52:12;20.77;;;13.13;;
13985;SDS011;7067;51.832;8.296;2024-01-10T14:54:37;23.13;;;14.07;;
13985;SDS011;7067;51.832;8.296;2024-01-10T14:57:02;28.13;;;14.03;;
13985;SDS011;7067;51.832;8.296;2024-01-10T14:59:28;29.17;;;14.53;;
13985;SDS011;7067;51.832;8.296;2024-01-10T15:01:54;21.93;;;13.13;;
13985;SDS011;7067;51.832;8.296;2024-01-10T15:04:20;22.67;;;13.03;;
13985;SDS011;7067;51.832;8.296;2024-01-10T15:06:45;23.70;;;15.07;;
13985;SDS011;7067;51.832;8.296;2024-01-10T15:09:11;27.17;;;13.93;;
13985;SDS011;7067;51.832;8.296;2024-01-10T15:11:38;25.73;;;15.07;;
13985;SDS011;7067;51.832;8.296;2024-01-10T15:14:06;26.93;;;15.00;;
13985;SDS011;7067;51.832;8.296;2024-01-10T15:16:33;29.57;;;16.40;;
13985;SDS011;7067;51.832;8.296;2024-01-10T15:18:58;30.73;;;16.53;;
13985;SDS011;7067;51.832;8.296;2024-01-10T15:21:25;30.60;;;16.10;;
13985;SDS011;7067;51.832;8.296;2024-01-10T15:23:50;31.60;;;15.37;;